createdAt,value
2023-04-14T00:01:38.087Z,1.40
2023-04-14T00:04:05.137Z,1.10
2023-04-14T00:06:32.966Z,1.77
2023-04-14T00:08:59.798Z,1.48
2023-04-14T00:11:27.308Z,2.30
2023-04-14T00:13:55.954Z,1.17
2023-04-14T00:16:22.703Z,1.63
2023-04-14T00:18:49.339Z,1.80
2023-04-14T00:21:16.277Z,1.92
2023-04-14T00:23:42.863Z,1.40
2023-04-14T00:26:09.544Z,1.55
2023-04-14T00:28:36.263Z,1.45
2023-04-14T00:31:02.870Z,1.50
2023-04-14T00:33:29.476Z,1.50
2023-04-14T00:35:56.993Z,1.77
2023-04-14T00:38:23.965Z,2.35
2023-04-14T00:40:50.679Z,1.40
2023-04-14T00:43:20.544Z,1.98
2023-04-14T00:45:49.240Z,1.80
2023-04-14T00:48:17.416Z,1.90
2023-04-14T00:50:44.360Z,2.88
2023-04-14T00:53:12.895Z,1.90
2023-04-14T00:55:41.227Z,1.73
2023-04-14T00:58:08.538Z,1.98
2023-04-14T01:00:36.221Z,2.33
2023-04-14T01:03:03.434Z,1.65
2023-04-14T01:05:30.607Z,1.67
2023-04-14T01:07:57.905Z,1.83
2023-04-14T01:10:30.509Z,1.60
2023-04-14T01:13:02.712Z,2.15
2023-04-14T01:15:38.547Z,1.95
2023-04-14T01:18:19.691Z,1.80
2023-04-14T01:20:52.755Z,2.53
2023-04-14T01:23:35.340Z,2.45
2023-04-14T01:26:22.015Z,2.15
2023-04-14T01:29:01.367Z,1.55
2023-04-14T01:31:54.011Z,1.80
2023-04-14T01:34:29.476Z,1.90
2023-04-14T01:37:06.573Z,1.75
2023-04-14T01:39:41.156Z,2.03
2023-04-14T01:42:15.081Z,1.77
2023-04-14T01:44:43.853Z,1.75
2023-04-14T01:47:15.484Z,2.50
2023-04-14T01:49:45.113Z,2.08
2023-04-14T01:52:13.982Z,1.80
2023-04-14T01:54:42.717Z,2.38
2023-04-14T01:57:11.852Z,1.83
2023-04-14T01:59:41.666Z,2.30
2023-04-14T02:02:10.178Z,1.48
2023-04-14T02:04:38.268Z,2.08
2023-04-14T02:07:06.439Z,1.70
2023-04-14T02:09:34.946Z,2.00
2023-04-14T02:12:03.525Z,1.40
2023-04-14T02:14:31.915Z,2.03
2023-04-14T02:17:02.637Z,1.50
2023-04-14T02:19:30.654Z,1.65
2023-04-14T02:21:58.726Z,1.98
2023-04-14T02:24:25.432Z,1.55
2023-04-14T02:27:03.475Z,1.83
2023-04-14T02:29:32.925Z,1.70
2023-04-14T02:32:14.773Z,1.50
2023-04-14T02:35:03.834Z,1.95
2023-04-14T02:37:40.792Z,2.17
2023-04-14T02:40:18.353Z,1.52
2023-04-14T02:42:48.224Z,1.20
2023-04-14T02:45:22.808Z,2.42
2023-04-14T02:47:54.812Z,1.70
2023-04-14T02:50:22.855Z,2.15
2023-04-14T02:52:51.823Z,1.45
2023-04-14T02:55:23.532Z,1.73
2023-04-14T02:57:52.331Z,1.98
2023-04-14T03:00:20.366Z,1.50
2023-04-14T03:02:48.462Z,1.60
2023-04-14T03:05:15.612Z,1.52
2023-04-14T03:07:44.283Z,1.48
2023-04-14T03:10:12.283Z,1.63
2023-04-14T03:12:42.146Z,1.80
2023-04-14T03:15:10.342Z,1.20
2023-04-14T03:17:38.188Z,1.42
2023-04-14T03:20:05.636Z,1.75
2023-04-14T03:22:36.220Z,1.25
2023-04-14T03:25:02.935Z,1.30
2023-04-14T03:27:32.011Z,1.50
2023-04-14T03:30:04.709Z,1.40
2023-04-14T03:32:36.883Z,1.40
2023-04-14T03:35:03.800Z,1.80
2023-04-14T03:37:35.252Z,1.50
2023-04-14T03:40:05.905Z,1.75
2023-04-14T03:42:34.292Z,1.33
2023-04-14T03:45:02.564Z,1.58
2023-04-14T03:47:31.761Z,1.50
2023-04-14T03:50:01.374Z,1.67
2023-04-14T03:52:32.536Z,1.40
2023-04-14T03:55:03.501Z,1.50
2023-04-14T03:57:32.655Z,1.27
2023-04-14T04:00:01.988Z,1.40
2023-04-14T04:02:30.387Z,1.67
2023-04-14T04:04:58.732Z,1.83
2023-04-14T04:07:26.932Z,1.23
2023-04-14T04:09:53.935Z,1.70
2023-04-14T04:12:21.331Z,1.20
2023-04-14T04:14:48.107Z,1.25
2023-04-14T04:17:18.178Z,1.40
2023-04-14T04:19:46.535Z,1.10
2023-04-14T04:22:17.428Z,1.33
2023-04-14T04:24:45.504Z,1.27
2023-04-14T04:27:24.287Z,1.15
2023-04-14T04:29:54.295Z,1.20
2023-04-14T04:32:21.159Z,2.25
2023-04-14T04:34:53.126Z,1.15
2023-04-14T04:37:21.491Z,1.20
2023-04-14T04:39:48.724Z,2.53
2023-04-14T04:42:16.518Z,1.90
2023-04-14T04:44:43.234Z,1.20
2023-04-14T04:47:12.061Z,1.20
2023-04-14T04:49:38.784Z,0.82
2023-04-14T04:52:05.564Z,1.10
2023-04-14T04:54:32.341Z,1.27
2023-04-14T04:56:58.977Z,1.40
2023-04-14T04:59:25.999Z,2.05
2023-04-14T05:01:52.801Z,1.27
2023-04-14T05:04:19.467Z,1.17
2023-04-14T05:06:46.146Z,1.67
2023-04-14T05:09:12.898Z,1.38
2023-04-14T05:11:39.485Z,1.40
2023-04-14T05:14:06.483Z,1.58
2023-04-14T05:16:33.574Z,1.25
2023-04-14T05:19:00.374Z,1.10
2023-04-14T05:21:27.300Z,1.33
2023-04-14T05:23:53.904Z,1.17
2023-04-14T05:26:44.805Z,1.10
2023-04-14T05:29:08.732Z,0.93
2023-04-14T05:31:35.622Z,1.73
2023-04-14T05:34:02.546Z,1.15
2023-04-14T05:36:29.522Z,1.10
2023-04-14T05:38:56.306Z,1.33
2023-04-14T05:41:23.643Z,1.20
2023-04-14T05:43:50.786Z,1.33
2023-04-14T05:46:17.792Z,1.52
2023-04-14T05:48:44.501Z,1.10
2023-04-14T05:51:11.368Z,1.15
2023-04-14T05:53:38.062Z,1.50
2023-04-14T05:56:05.040Z,0.93
2023-04-14T05:58:31.629Z,1.00
2023-04-14T06:00:58.178Z,1.00
2023-04-14T06:03:24.917Z,1.10
2023-04-14T06:05:53.161Z,1.33
2023-04-14T06:08:20.545Z,0.85
2023-04-14T06:10:47.268Z,1.10
2023-04-14T06:13:13.974Z,1.15
2023-04-14T06:15:40.704Z,1.33
2023-04-14T06:18:07.335Z,1.20
2023-04-14T06:20:35.685Z,1.33
2023-04-14T06:23:02.290Z,1.45
2023-04-14T06:25:28.886Z,1.88
2023-04-14T06:27:55.728Z,1.65
2023-04-14T06:30:22.513Z,1.38
2023-04-14T06:32:54.277Z,1.30
2023-04-14T06:35:32.387Z,1.40
2023-04-14T06:38:00.052Z,1.30
2023-04-14T06:40:26.886Z,1.30
2023-04-14T06:42:53.592Z,1.38
2023-04-14T06:45:20.460Z,1.38
2023-04-14T06:47:47.254Z,1.40
2023-04-14T06:50:14.488Z,1.33
2023-04-14T06:52:41.340Z,1.40
2023-04-14T06:55:08.390Z,1.17
2023-04-14T06:57:35.033Z,2.00
2023-04-14T07:00:01.638Z,2.15
2023-04-14T07:02:28.954Z,1.65
2023-04-14T07:04:56.027Z,1.38
2023-04-14T07:07:24.365Z,1.20
2023-04-14T07:09:51.607Z,1.00
2023-04-14T07:12:18.400Z,1.50
2023-04-14T07:14:51.950Z,1.33
2023-04-14T07:17:19.475Z,1.42
2023-04-14T07:19:46.536Z,2.15
2023-04-14T07:22:13.297Z,2.30
2023-04-14T07:24:40.529Z,1.30
2023-04-14T07:27:07.478Z,1.80
2023-04-14T07:29:35.094Z,1.88
2023-04-14T07:32:02.321Z,1.38
2023-04-14T07:34:28.916Z,1.50
2023-04-14T07:36:55.884Z,1.38
2023-04-14T07:39:23.733Z,1.90
2023-04-14T07:41:50.708Z,1.80
2023-04-14T07:44:17.408Z,1.65
2023-04-14T07:46:44.242Z,1.70
2023-04-14T07:49:11.271Z,1.75
2023-04-14T07:51:37.927Z,2.60
2023-04-14T07:54:06.198Z,1.58
2023-04-14T07:56:33.001Z,1.50
2023-04-14T07:59:00.016Z,2.42
2023-04-14T08:01:27.205Z,1.88
2023-04-14T08:03:54.109Z,1.67
2023-04-14T08:06:21.317Z,1.50
2023-04-14T08:08:47.956Z,1.80
2023-04-14T08:11:14.641Z,1.38
2023-04-14T08:13:43.670Z,1.25
2023-04-14T08:16:10.465Z,1.75
2023-04-14T08:18:37.376Z,1.42
2023-04-14T08:21:04.178Z,2.15
2023-04-14T08:23:30.873Z,1.70
2023-04-14T08:25:57.547Z,2.08
2023-04-14T08:28:24.192Z,1.88
2023-04-14T08:30:50.814Z,2.38
2023-04-14T08:33:18.054Z,2.53
2023-04-14T08:35:44.682Z,1.88
2023-04-14T08:38:11.579Z,1.73
2023-04-14T08:40:42.977Z,1.67
2023-04-14T08:43:12.468Z,1.73
2023-04-14T08:45:41.364Z,1.50
2023-04-14T08:48:08.576Z,2.20
2023-04-14T08:50:49.995Z,1.65
2023-04-14T08:53:20.231Z,2.17
2023-04-14T08:55:47.121Z,1.60
2023-04-14T08:58:13.798Z,1.70
2023-04-14T09:00:42.485Z,1.60
2023-04-14T09:03:09.914Z,1.35
2023-04-14T09:05:38.146Z,1.60
2023-04-14T09:08:04.941Z,1.50
2023-04-14T09:10:32.048Z,1.75
2023-04-14T09:12:59.737Z,1.05
2023-04-14T09:15:28.909Z,1.50
2023-04-14T09:17:56.171Z,1.73
2023-04-14T09:20:38.783Z,1.80
2023-04-14T09:23:10.759Z,1.70
2023-04-14T09:25:42.391Z,1.10
2023-04-14T09:28:09.062Z,1.70
2023-04-14T09:30:35.729Z,1.67
2023-04-14T09:33:18.654Z,1.40
2023-04-14T09:35:47.520Z,1.17
2023-04-14T09:38:14.552Z,1.63
2023-04-14T09:40:43.299Z,1.40
2023-04-14T09:43:24.365Z,1.38
2023-04-14T09:45:51.282Z,1.58
2023-04-14T09:48:18.464Z,1.20
2023-04-14T09:51:01.755Z,1.63
2023-04-14T09:53:30.269Z,1.15
2023-04-14T09:55:59.726Z,1.20
2023-04-14T09:58:33.965Z,1.05
2023-04-14T10:01:03.298Z,1.40
2023-04-14T10:03:36.787Z,1.00
2023-04-14T10:06:07.951Z,1.08
2023-04-14T10:08:37.951Z,1.77
2023-04-14T10:11:32.964Z,1.20
2023-04-14T10:14:04.902Z,1.25
2023-04-14T10:16:32.811Z,2.05
2023-04-14T10:19:00.228Z,1.25
2023-04-14T10:21:27.963Z,1.85
2023-04-14T10:23:58.796Z,1.30
2023-04-14T10:26:27.762Z,1.80
2023-04-14T10:28:57.261Z,1.13
2023-04-14T10:31:30.004Z,1.20
2023-04-14T10:33:58.106Z,0.95
2023-04-14T10:36:29.135Z,1.23
2023-04-14T10:39:02.534Z,1.10
2023-04-14T10:41:48.455Z,0.77
2023-04-14T10:44:32.500Z,1.00
2023-04-14T10:47:02.366Z,1.40
2023-04-14T10:49:35.099Z,1.10
2023-04-14T10:52:06.463Z,0.85
2023-04-14T10:54:53.816Z,1.10
2023-04-14T10:59:55.930Z,1.30
2023-04-14T11:02:30.850Z,1.10
2023-04-14T11:05:06.733Z,0.75
2023-04-14T11:07:46.294Z,1.15
2023-04-14T11:10:24.631Z,0.70
2023-04-14T11:13:12.201Z,1.15
2023-04-14T11:15:57.200Z,1.00
2023-04-14T11:18:29.832Z,0.82
2023-04-14T11:21:04.883Z,0.85
2023-04-14T11:23:31.587Z,0.70
2023-04-14T11:25:59.281Z,1.15
2023-04-14T11:28:45.114Z,0.90
2023-04-14T11:31:12.941Z,0.98
2023-04-14T11:33:41.873Z,0.95
2023-04-14T11:36:11.259Z,1.30
2023-04-14T11:38:40.508Z,1.23
2023-04-14T11:41:08.173Z,1.00
2023-04-14T11:43:34.923Z,0.80
2023-04-14T11:46:05.713Z,1.60
2023-04-14T11:48:32.507Z,1.42
2023-04-14T11:51:03.757Z,1.55
2023-04-14T11:53:30.733Z,0.80
2023-04-14T11:55:57.764Z,0.80
2023-04-14T11:58:26.732Z,0.73
2023-04-14T12:00:56.246Z,1.15
2023-04-14T12:06:16.291Z,0.90
2023-04-14T12:08:42.910Z,0.70
2023-04-14T12:11:13.981Z,3.25
2023-04-14T12:13:41.889Z,0.70
2023-04-14T12:16:08.890Z,0.90
2023-04-14T12:18:35.575Z,1.00
2023-04-14T12:21:05.095Z,1.13
2023-04-14T12:23:39.961Z,0.82
2023-04-14T12:26:12.929Z,0.75
2023-04-14T12:28:42.460Z,1.20
2023-04-14T12:31:11.180Z,0.98
2023-04-14T12:33:38.040Z,0.90
2023-04-14T12:36:07.569Z,0.88
2023-04-14T12:38:34.716Z,1.17
2023-04-14T12:41:01.876Z,0.95
2023-04-14T12:43:32.473Z,1.65
2023-04-14T12:45:59.934Z,0.93
2023-04-14T12:48:40.377Z,1.88
2023-04-14T12:51:11.732Z,0.90
2023-04-14T12:53:39.809Z,0.93
2023-04-14T12:56:14.809Z,0.85
2023-04-14T12:58:43.720Z,0.93
2023-04-14T13:01:11.793Z,0.50
2023-04-14T13:03:46.283Z,0.70
2023-04-14T13:06:18.071Z,0.60
2023-04-14T13:08:51.308Z,0.60
2023-04-14T13:11:20.061Z,0.80
2023-04-14T13:13:47.080Z,0.85
2023-04-14T13:16:16.720Z,0.50
2023-04-14T13:18:45.272Z,0.88
2023-04-14T13:21:13.589Z,0.68
2023-04-14T13:23:41.181Z,1.00
2023-04-14T13:26:08.090Z,1.00
2023-04-14T13:28:35.200Z,0.82
2023-04-14T13:31:01.841Z,0.80
2023-04-14T13:33:28.606Z,0.52
2023-04-14T13:35:58.109Z,1.25
2023-04-14T13:38:24.813Z,0.75
2023-04-14T13:40:51.444Z,0.80
2023-04-14T13:43:19.024Z,0.75
2023-04-14T13:45:47.275Z,1.10
2023-04-14T13:48:14.574Z,0.85
2023-04-14T13:50:41.891Z,0.63
2023-04-14T13:53:09.131Z,0.60
2023-04-14T13:55:36.361Z,0.70
2023-04-14T13:58:03.424Z,0.52
2023-04-14T14:00:30.132Z,0.60
2023-04-14T14:02:56.969Z,0.60
2023-04-14T14:05:24.083Z,0.82
2023-04-14T14:07:50.724Z,0.95
2023-04-14T14:10:17.468Z,0.63
2023-04-14T14:12:44.233Z,0.57
2023-04-14T14:15:11.510Z,0.70
2023-04-14T14:17:38.209Z,0.68
2023-04-14T14:20:05.240Z,0.63
2023-04-14T14:22:31.868Z,0.60
2023-04-14T14:25:10.702Z,0.70
2023-04-14T14:27:42.307Z,0.60
2023-04-14T14:30:09.528Z,0.60
2023-04-14T14:32:36.186Z,1.02
2023-04-14T14:35:04.418Z,0.80
2023-04-14T14:37:31.090Z,0.85
2023-04-14T14:39:57.994Z,0.80
2023-04-14T14:42:24.644Z,1.52
2023-04-14T14:44:51.529Z,0.70
2023-04-14T14:47:18.168Z,0.70
2023-04-14T14:49:52.953Z,1.05
2023-04-14T14:52:29.754Z,0.90
2023-04-14T14:54:57.155Z,0.77
2023-04-14T14:57:25.221Z,0.70
2023-04-14T14:59:52.780Z,0.90
2023-04-14T15:02:20.966Z,0.60
2023-04-14T15:04:48.197Z,0.60
2023-04-14T15:07:15.175Z,0.90
2023-04-14T15:09:41.855Z,0.60
2023-04-14T15:12:08.654Z,0.90
2023-04-14T15:14:35.312Z,0.70
2023-04-14T15:17:02.618Z,0.88
2023-04-14T15:19:29.289Z,0.85
2023-04-14T15:21:55.909Z,0.90
2023-04-14T15:24:22.546Z,1.00
2023-04-14T15:26:49.181Z,0.88
2023-04-14T15:29:16.293Z,0.65
2023-04-14T15:31:42.955Z,0.80
2023-04-14T15:34:09.580Z,1.13
2023-04-14T15:36:36.852Z,0.90
2023-04-14T15:39:03.593Z,0.77
2023-04-14T15:41:30.271Z,0.70
2023-04-14T15:43:56.893Z,0.57
2023-04-14T15:46:23.724Z,1.00
2023-04-14T15:48:50.373Z,0.85
2023-04-14T15:51:17.089Z,0.82
2023-04-14T15:53:43.776Z,0.80
2023-04-14T15:56:10.357Z,0.80
2023-04-14T15:58:37.061Z,0.80
2023-04-14T16:01:07.795Z,0.63
2023-04-14T16:03:35.051Z,0.90
2023-04-14T16:06:03.349Z,0.75
2023-04-14T16:08:30.112Z,1.00
2023-04-14T16:10:57.006Z,1.00
2023-04-14T16:13:23.680Z,0.93
2023-04-14T16:15:50.649Z,0.82
2023-04-14T16:18:17.665Z,1.25
2023-04-14T16:20:44.345Z,0.95
2023-04-14T16:23:11.018Z,1.77
2023-04-14T16:25:38.363Z,1.45
2023-04-14T16:28:05.076Z,0.90
2023-04-14T16:30:32.291Z,0.80
2023-04-14T16:32:58.926Z,1.73
2023-04-14T16:35:26.101Z,0.90
2023-04-14T16:37:53.628Z,1.00
2023-04-14T16:40:20.430Z,0.95
2023-04-14T16:42:47.315Z,1.30
2023-04-14T16:45:14.155Z,0.90
2023-04-14T16:47:41.350Z,0.98
2023-04-14T16:50:08.557Z,0.60
2023-04-14T16:52:35.717Z,0.60
2023-04-14T16:55:02.312Z,0.50
2023-04-14T16:57:28.962Z,0.63
2023-04-14T16:59:55.634Z,0.65
2023-04-14T17:02:22.745Z,0.90
2023-04-14T17:04:49.611Z,0.93
2023-04-14T17:07:16.644Z,0.63
2023-04-14T17:09:43.303Z,1.00
2023-04-14T17:12:09.940Z,1.13
2023-04-14T17:14:37.236Z,0.80
2023-04-14T17:17:04.293Z,0.90
2023-04-14T17:19:31.396Z,1.20
2023-04-14T17:21:58.216Z,2.10
2023-04-14T17:24:25.377Z,1.27
2023-04-14T17:26:52.013Z,2.03
2023-04-14T17:29:18.682Z,1.00
2023-04-14T17:31:46.127Z,2.67
2023-04-14T17:34:13.091Z,2.00
2023-04-14T17:36:39.786Z,2.05
2023-04-14T17:39:08.366Z,1.20
2023-04-14T17:41:35.576Z,0.90
2023-04-14T17:44:02.465Z,0.80
2023-04-14T17:46:35.569Z,1.20
2023-04-14T17:49:02.450Z,0.82
2023-04-14T17:51:30.876Z,1.25
2023-04-14T17:53:58.266Z,1.02
2023-04-14T17:56:25.817Z,0.98
2023-04-14T17:58:52.998Z,1.02
2023-04-14T18:01:19.834Z,1.15
2023-04-14T18:03:46.804Z,1.08
2023-04-14T18:06:13.586Z,1.00
2023-04-14T18:08:40.315Z,0.73
2023-04-14T18:11:09.911Z,0.82
2023-04-14T18:13:36.552Z,1.15
2023-04-14T18:16:03.193Z,1.02
2023-04-14T18:18:29.993Z,1.23
2023-04-14T18:20:57.326Z,1.00
2023-04-14T18:23:23.964Z,1.33
2023-04-14T18:28:32.035Z,1.23
2023-04-14T18:30:59.833Z,0.80
2023-04-14T18:33:27.744Z,1.13
2023-04-14T18:35:57.151Z,1.33
2023-04-14T18:38:24.804Z,1.00
2023-04-14T18:40:52.374Z,1.00
2023-04-14T18:43:19.157Z,0.90
2023-04-14T18:45:47.383Z,1.52
2023-04-14T18:48:15.347Z,1.00
2023-04-14T18:50:43.185Z,1.38
2023-04-14T18:53:10.811Z,1.13
2023-04-14T18:55:45.060Z,1.20
2023-04-14T18:58:13.125Z,1.90
2023-04-14T19:00:40.259Z,1.42
2023-04-14T19:03:08.580Z,1.20
2023-04-14T19:05:37.043Z,1.17
2023-04-14T19:08:04.823Z,1.00
2023-04-14T19:10:31.650Z,1.20
2023-04-14T19:12:58.311Z,1.30
2023-04-14T19:15:27.690Z,1.20
2023-04-14T19:17:55.690Z,0.85
2023-04-14T19:20:22.672Z,1.42
2023-04-14T19:22:49.667Z,1.20
2023-04-14T19:25:16.807Z,1.20
2023-04-14T19:27:43.591Z,1.13
2023-04-14T19:30:10.890Z,1.00
2023-04-14T19:32:37.743Z,1.10
2023-04-14T19:35:07.723Z,0.90
2023-04-14T19:37:35.143Z,0.80
2023-04-14T19:40:06.083Z,1.25
2023-04-14T19:42:33.355Z,1.00
2023-04-14T19:45:00.599Z,0.88
2023-04-14T19:47:27.607Z,0.98
2023-04-14T19:49:55.280Z,1.05
2023-04-14T19:52:22.509Z,1.35
2023-04-14T19:54:49.570Z,1.25
2023-04-14T19:57:16.814Z,1.25
2023-04-14T19:59:44.224Z,1.27
2023-04-14T20:02:13.181Z,0.93
2023-04-14T20:04:40.463Z,1.20
2023-04-14T20:07:07.362Z,1.20
2023-04-14T20:09:33.953Z,1.50
2023-04-14T20:12:02.369Z,1.38
2023-04-14T20:14:29.423Z,1.40
2023-04-14T20:16:56.619Z,1.40
2023-04-14T20:19:23.986Z,1.58
2023-04-14T20:21:51.030Z,1.20
2023-04-14T20:24:17.887Z,1.00
2023-04-14T20:26:45.101Z,1.58
2023-04-14T20:29:12.279Z,1.20
2023-04-14T20:31:39.749Z,1.20
2023-04-14T20:34:06.470Z,1.85
2023-04-14T20:36:36.087Z,2.55
2023-04-14T20:39:06.322Z,2.47
2023-04-14T20:41:34.015Z,2.50
2023-04-14T20:44:00.898Z,2.25
2023-04-14T20:46:28.067Z,2.17
2023-04-14T20:48:55.002Z,2.22
2023-04-14T20:51:21.627Z,2.05
2023-04-14T20:53:49.055Z,3.30
2023-04-14T20:56:15.971Z,4.95
2023-04-14T20:58:42.679Z,3.47
2023-04-14T21:01:09.434Z,3.45
2023-04-14T21:03:36.385Z,3.72
2023-04-14T21:06:03.203Z,4.30
2023-04-14T21:08:29.934Z,4.93
2023-04-14T21:11:15.622Z,5.10
2023-04-14T21:15:28.793Z,5.05
2023-04-14T21:16:30.519Z,5.07
2023-04-14T21:18:57.574Z,5.78
2023-04-14T21:21:24.452Z,6.05
2023-04-14T21:23:51.300Z,5.50
2023-04-14T21:26:17.874Z,5.53
2023-04-14T21:28:44.577Z,5.47
2023-04-14T21:31:11.491Z,6.53
2023-04-14T21:33:39.958Z,6.38
2023-04-14T21:36:07.091Z,6.18
2023-04-14T21:38:33.847Z,6.10
2023-04-14T21:41:00.873Z,7.00
2023-04-14T21:43:27.537Z,6.93
2023-04-14T21:45:54.480Z,5.50
2023-04-14T21:48:21.082Z,6.72
2023-04-14T21:50:47.740Z,6.07
2023-04-14T21:53:14.348Z,6.18
2023-04-14T21:55:41.279Z,5.85
2023-04-14T21:58:07.928Z,6.05
2023-04-14T22:00:35.537Z,5.30
2023-04-14T22:03:02.494Z,5.88
2023-04-14T22:05:29.182Z,5.28
2023-04-14T22:07:55.835Z,4.95
2023-04-14T22:10:23.493Z,4.82
2023-04-14T22:12:50.947Z,5.10
2023-04-14T22:15:17.656Z,5.32
2023-04-14T22:17:45.532Z,5.88
2023-04-14T22:20:12.214Z,4.88
2023-04-14T22:22:38.935Z,5.70
2023-04-14T22:25:06.069Z,5.85
2023-04-14T22:27:33.930Z,5.75
2023-04-14T22:30:01.978Z,5.22
2023-04-14T22:32:28.809Z,6.38
2023-04-14T22:34:55.421Z,6.15
2023-04-14T22:37:22.198Z,6.90
2023-04-14T22:39:48.926Z,7.32
2023-04-14T22:42:15.935Z,6.15
2023-04-14T22:44:42.730Z,6.65
2023-04-14T22:47:09.526Z,6.15
2023-04-14T22:49:36.412Z,5.88
2023-04-14T22:52:03.085Z,6.45
2023-04-14T22:54:29.703Z,7.03
2023-04-14T22:56:56.496Z,7.47
2023-04-14T22:59:24.185Z,6.82
2023-04-14T23:01:51.819Z,6.78
2023-04-14T23:04:18.690Z,6.95
2023-04-14T23:06:45.697Z,6.32
2023-04-14T23:09:12.583Z,6.57
2023-04-14T23:11:39.215Z,6.65
2023-04-14T23:14:06.111Z,6.10
2023-04-14T23:16:32.788Z,5.65
2023-04-14T23:18:59.616Z,5.60
2023-04-14T23:21:27.540Z,5.32
2023-04-14T23:23:54.220Z,5.60
2023-04-14T23:26:21.835Z,6.95
2023-04-14T23:28:48.659Z,6.57
2023-04-14T23:31:15.316Z,5.90
2023-04-14T23:33:41.936Z,6.63
2023-04-14T23:36:08.547Z,6.05
2023-04-14T23:38:35.393Z,6.22
2023-04-14T23:41:02.312Z,6.32
2023-04-14T23:43:29.249Z,7.13
2023-04-14T23:45:56.700Z,5.97
2023-04-14T23:48:23.510Z,6.43
2023-04-14T23:51:00.550Z,6.00
2023-04-14T23:53:36.718Z,7.32
2023-04-14T23:56:04.396Z,7.18
2023-04-14T23:58:31.660Z,7.50
